Time;durP1;ratioP1;P1;durP2;ratioP2;P2;SDS_P1;SDS_P2;PMS_P1;PMS_P2;Temp;Humidity;BMP_temperature;BMP_pressure;BME280_temperature;BME280_humidity;BME280_pressure;Samples;Min_cycle;Max_cycle;Signal;HPM_P1;HPM_P2
2022/08/15 00:00:28;;;;;;;;;6.00;4.75;;;28.96;96923.13;;;;119132;1188;26021;-65
2022/08/15 00:03:04;;;;;;;;;7.00;5.50;;;28.96;96913.30;;;;119144;1188;25093;-65
2022/08/15 00:05:40;;;;;;;;;6.00;3.75;;;28.95;96913.55;;;;119119;1187;25973;-65
2022/08/15 00:08:09;;;;;;;;;6.25;5.00;;;28.92;96914.59;;;;119145;1187;26134;-65
2022/08/15 00:11:13;;;;;;;;;3.00;3.00;;;28.96;96913.51;;;;119146;1188;25205;-65
2022/08/15 00:14:00;;;;;;;;;2.00;1.00;;;28.99;96907.76;;;;119116;1188;25047;-65
2022/08/15 00:16:33;;;;;;;;;8.00;4.75;;;28.96;96904.50;;;;119099;1189;24815;-65
2022/08/15 00:19:10;;;;;;;;;5.00;5.00;;;28.92;96901.70;;;;119050;1189;25566;-64
2022/08/15 00:21:43;;;;;;;;;3.75;3.75;;;28.91;96897.89;;;;119070;1189;25062;-64
2022/08/15 00:24:20;;;;;;;;;5.50;5.50;;;28.91;96894.90;;;;119124;1187;26392;-64
2022/08/15 00:26:58;;;;;;;;;3.00;3.00;;;28.93;96892.09;;;;119139;1188;24968;-64
2022/08/15 00:29:29;;;;;;;;;5.00;3.25;;;28.91;96897.66;;;;119035;1189;25421;-64
2022/08/15 00:32:10;;;;;;;;;6.00;4.25;;;28.91;96896.64;;;;119037;1190;25275;-64
2022/08/15 00:34:59;;;;;;;;;5.25;5.00;;;28.97;96891.17;;;;119144;1187;25828;-64
2022/08/15 00:37:27;;;;;;;;;3.67;3.00;;;28.95;96888.31;;;;119139;1188;26413;-64
2022/08/15 00:39:55;;;;;;;;;6.50;5.00;;;28.91;96888.00;;;;119031;1190;25598;-64
2022/08/15 00:42:25;;;;;;;;;5.00;4.00;;;28.88;96890.20;;;;119136;1187;25912;-64
2022/08/15 00:44:57;;;;;;;;;7.75;6.25;;;28.86;96888.66;;;;119165;1188;25740;-64
2022/08/15 00:47:34;;;;;;;;;5.75;4.25;;;28.87;96889.70;;;;119140;1187;26437;-66
2022/08/15 00:50:13;;;;;;;;;5.00;4.25;;;28.87;96891.77;;;;119146;1188;25925;-69
2022/08/15 00:53:09;;;;;;;;;5.50;4.00;;;28.92;96898.48;;;;119032;1190;25904;-65
2022/08/15 00:55:40;;;;;;;;;7.75;4.75;;;28.93;96900.16;;;;119012;1190;25208;-65
2022/08/15 00:58:09;;;;;;;;;5.00;5.00;;;28.88;96898.58;;;;119040;1188;24895;-65
2022/08/15 01:00:57;;;;;;;;;4.00;3.00;;;28.92;96894.48;;;;119141;1187;25836;-63
2022/08/15 01:03:32;;;;;;;;;3.00;3.00;;;28.91;96892.13;;;;119040;1188;25743;-63
2022/08/15 01:06:22;;;;;;;;;4.00;3.67;;;28.95;96890.88;;;;119167;1187;25268;-65
2022/08/15 01:09:01;;;;;;;;;5.50;5.00;;;28.96;96893.17;;;;119179;1189;24898;-65
2022/08/15 01:11:53;;;;;;;;;4.33;3.00;;;28.96;96892.75;;;;119176;1187;25763;-65
2022/08/15 01:14:22;;;;;;;;;2.25;2.25;;;28.96;96888.09;;;;119174;1188;25533;-65
2022/08/15 01:17:11;;;;;;;;;5.00;4.33;;;28.98;96888.98;;;;119183;1188;25011;-65
2022/08/15 01:19:57;;;;;;;;;4.25;4.25;;;28.96;96893.99;;;;119188;1188;25401;-67
2022/08/15 01:22:36;;;;;;;;;6.67;3.67;;;28.93;96891.73;;;;119016;1190;26333;-66
2022/08/15 01:25:16;;;;;;;;;11.50;5.00;;;28.89;96894.27;;;;119177;1187;25806;-67
2022/08/15 01:28:12;;;;;;;;;3.50;3.50;;;28.93;96897.58;;;;119187;1187;25573;-69
2022/08/15 01:30:55;;;;;;;;;4.25;4.25;;;28.94;96903.53;;;;119038;1189;25212;-65
2022/08/15 01:33:45;;;;;;;;;5.50;4.50;;;28.96;96906.57;;;;119170;1188;25608;-65
2022/08/15 01:36:16;;;;;;;;;5.00;4.25;;;28.96;96902.06;;;;119174;1187;25417;-65
2022/08/15 01:39:13;;;;;;;;;5.00;5.00;;;28.96;96897.99;;;;119165;1188;25786;-65
2022/08/15 01:42:00;;;;;;;;;6.75;4.50;;;28.95;96892.27;;;;119168;1187;24761;-65
2022/08/15 01:44:42;;;;;;;;;5.50;4.00;;;28.92;96891.16;;;;119170;1187;26318;-65
2022/08/15 01:47:35;;;;;;;;;2.00;2.00;;;28.93;96898.27;;;;119147;1188;26319;-66
2022/08/15 01:50:23;;;;;;;;;3.00;3.00;;;28.91;96904.48;;;;119157;1188;26145;-65
2022/08/15 01:53:13;;;;;;;;;4.25;4.25;;;28.89;96906.87;;;;119151;1187;25417;-66
2022/08/15 01:55:49;;;;;;;;;3.00;3.00;;;28.88;96899.52;;;;119167;1187;25710;-64
2022/08/15 01:58:23;;;;;;;;;5.00;5.00;;;28.87;96899.86;;;;119179;1188;24855;-64
2022/08/15 02:01:03;;;;;;;;;3.00;3.00;;;28.86;96894.96;;;;119161;1187;24967;-64
2022/08/15 02:03:35;;;;;;;;;5.25;3.50;;;28.86;96895.31;;;;119183;1187;24706;-64
2022/08/15 02:06:22;;;;;;;;;3.50;3.50;;;28.88;96893.14;;;;119165;1186;25146;-64
2022/08/15 02:09:07;;;;;;;;;3.00;3.00;;;28.90;96897.44;;;;119171;1187;25189;-65
2022/08/15 02:11:57;;;;;;;;;6.75;4.00;;;28.95;96900.81;;;;119161;1188;24860;-65
2022/08/15 02:14:31;;;;;;;;;4.50;4.50;;;28.94;96900.62;;;;119165;1189;25525;-65
2022/08/15 02:17:06;;;;;;;;;3.50;2.75;;;28.91;96899.44;;;;119165;1188;25636;-65
2022/08/15 02:19:36;;;;;;;;;3.25;3.00;;;28.87;96896.00;;;;119151;1189;25815;-64
2022/08/15 02:22:12;;;;;;;;;6.00;4.00;;;28.87;96892.00;;;;119155;1189;25667;-65
2022/08/15 02:24:58;;;;;;;;;4.50;4.25;;;28.88;96892.48;;;;119129;1187;25282;-65
2022/08/15 02:27:31;;;;;;;;;5.00;4.00;;;28.86;96887.23;;;;119051;1190;26075;-65
2022/08/15 02:30:14;;;;;;;;;2.00;2.00;;;28.84;96884.21;;;;119137;1188;25779;-64
2022/08/15 02:32:46;;;;;;;;;4.75;4.00;;;28.85;96884.73;;;;119110;1188;25645;-64
2022/08/15 02:35:17;;;;;;;;;7.00;4.00;;;28.84;96886.98;;;;119057;1189;25457;-64
2022/08/15 02:37:46;;;;;;;;;3.00;3.00;;;28.81;96892.33;;;;119123;1188;25590;-64
2022/08/15 02:40:26;;;;;;;;;4.00;4.00;;;28.81;96891.48;;;;119039;1189;25484;-64
2022/08/15 02:43:16;;;;;;;;;5.00;3.50;;;28.86;96893.98;;;;119056;1190;25363;-66
2022/08/15 02:45:49;;;;;;;;;3.25;3.25;;;28.86;96895.41;;;;119102;1188;25788;-65
2022/08/15 02:48:37;;;;;;;;;3.50;3.50;;;28.89;96898.55;;;;119118;1189;25038;-63
2022/08/15 02:51:09;;;;;;;;;4.00;4.00;;;28.87;96902.46;;;;119063;1188;25008;-65
2022/08/15 02:53:43;;;;;;;;;4.00;2.67;;;28.84;96900.93;;;;119047;1188;26329;-65
2022/08/15 02:56:16;;;;;;;;;4.25;4.25;;;28.83;96899.45;;;;119118;1187;24884;-65
2022/08/15 02:58:45;;;;;;;;;4.75;4.75;;;28.81;96903.36;;;;119123;1188;25623;-67
2022/08/15 03:01:13;;;;;;;;;5.00;5.00;;;28.78;96901.41;;;;119101;1187;25695;-68
2022/08/15 03:03:46;;;;;;;;;3.00;3.00;;;28.76;96897.56;;;;119101;1187;25122;-70
2022/08/15 03:06:21;;;;;;;;;4.25;4.25;;;28.76;96897.95;;;;119051;1190;25774;-65
2022/08/15 03:09:03;;;;;;;;;5.00;4.50;;;28.79;96897.11;;;;119130;1187;24845;-65
2022/08/15 03:11:34;;;;;;;;;4.25;3.00;;;28.80;96899.60;;;;119130;1188;24872;-65
2022/08/15 03:14:22;;;;;;;;;5.50;5.00;;;28.84;96901.63;;;;119023;1190;25810;-65
2022/08/15 03:17:03;;;;;;;;;3.00;3.00;;;28.87;96901.41;;;;119170;1187;25518;-65
2022/08/15 03:19:36;;;;;;;;;3.50;3.50;;;28.85;96894.91;;;;119162;1187;24861;-65
2022/08/15 03:22:07;;;;;;;;;5.25;4.25;;;28.82;96898.45;;;;119148;1187;25045;-65
2022/08/15 03:24:36;;;;;;;;;4.50;3.25;;;28.79;96894.92;;;;119180;1188;24987;-64
2022/08/15 03:27:04;;;;;;;;;3.50;3.50;;;28.76;96891.80;;;;119179;1186;25537;-64
2022/08/15 03:29:32;;;;;;;;;4.25;2.00;;;28.74;96883.23;;;;119166;1186;24878;-64
2022/08/15 03:32:10;;;;;;;;;4.00;4.00;;;28.74;96879.43;;;;119148;1187;24754;-64
2022/08/15 03:35:00;;;;;;;;;5.00;5.00;;;28.82;96877.86;;;;119158;1187;25119;-64
2022/08/15 03:37:29;;;;;;;;;3.00;3.00;;;28.83;96877.42;;;;119153;1188;26389;-64
2022/08/15 03:40:11;;;;;;;;;5.00;4.00;;;28.83;96877.91;;;;119158;1187;25080;-64
2022/08/15 03:42:49;;;;;;;;;5.25;3.75;;;28.81;96876.63;;;;119156;1188;25247;-64
2022/08/15 03:45:38;;;;;;;;;5.00;4.00;;;28.86;96873.09;;;;119160;1187;25729;-64
2022/08/15 03:48:10;;;;;;;;;6.50;5.25;;;28.87;96874.36;;;;119165;1189;25667;-64
2022/08/15 03:50:52;;;;;;;;;3.00;3.00;;;28.84;96871.80;;;;119165;1188;25406;-64
2022/08/15 03:53:28;;;;;;;;;2.50;2.50;;;28.84;96875.94;;;;119169;1187;24867;-65
2022/08/15 03:56:01;;;;;;;;;5.00;3.75;;;28.81;96882.34;;;;119143;1188;25727;-64
2022/08/15 03:58:30;;;;;;;;;4.50;4.50;;;28.78;96893.05;;;;119027;1189;24766;-64
2022/08/15 04:01:11;;;;;;;;;4.75;4.75;;;28.78;96898.91;;;;119138;1188;25573;-65
2022/08/15 04:03:40;;;;;;;;;3.25;3.25;;;28.78;96899.94;;;;119139;1188;24911;-64
2022/08/15 04:06:10;;;;;;;;;5.75;5.00;;;28.76;96901.66;;;;119133;1188;26156;-64
2022/08/15 04:08:45;;;;;;;;;3.75;2.00;;;28.75;96903.56;;;;119158;1188;25688;-66
2022/08/15 04:11:33;;;;;;;;;5.00;4.00;;;28.81;96904.80;;;;119148;1187;26450;-65
2022/08/15 04:14:08;;;;;;;;;3.67;2.00;;;28.81;96900.58;;;;119126;1187;25508;-64
2022/08/15 04:16:59;;;;;;;;;6.50;4.25;;;28.84;96892.07;;;;119141;1187;26243;-65
2022/08/15 04:19:44;;;;;;;;;5.75;4.50;;;28.88;96891.33;;;;119128;1189;24921;-65
2022/08/15 04:22:18;;;;;;;;;4.00;4.00;;;28.87;96890.55;;;;119029;1190;25969;-65
2022/08/15 04:25:34;;;;;;;;;3.25;2.75;;;28.89;96888.84;;;;119082;1189;24860;-65
2022/08/15 04:28:08;;;;;;;;;4.00;4.00;;;28.95;96883.94;;;;119085;1189;26851;-65
2022/08/15 04:30:57;;;;;;;;;6.00;3.50;;;28.96;96884.73;;;;119027;1190;25594;-65
2022/08/15 04:33:29;;;;;;;;;4.00;4.00;;;28.93;96884.65;;;;119021;1189;25263;-66
2022/08/15 04:36:18;;;;;;;;;5.00;3.75;;;28.93;96888.71;;;;119001;1190;25078;-68
2022/08/15 04:38:47;;;;;;;;;5.25;3.50;;;28.91;96890.20;;;;119003;1189;25334;-69
2022/08/15 04:41:17;;;;;;;;;3.25;3.25;;;28.86;96891.16;;;;119002;1190;25095;-69
2022/08/15 04:44:04;;;;;;;;;2.25;2.25;;;28.88;96889.57;;;;119026;1190;25487;-70
2022/08/15 04:46:32;;;;;;;;;3.00;2.00;;;28.85;96890.52;;;;119033;1189;24913;-66
2022/08/15 04:49:00;;;;;;;;;2.00;2.00;;;28.82;96900.59;;;;119022;1189;25213;-70
2022/08/15 04:51:28;;;;;;;;;6.00;4.00;;;28.77;96899.23;;;;119028;1190;24809;-69
2022/08/15 04:54:04;;;;;;;;;4.75;3.25;;;28.77;96899.67;;;;119052;1190;25640;-66
2022/08/15 04:56:32;;;;;;;;;4.75;2.25;;;28.76;96900.34;;;;119045;1189;25432;-65
2022/08/15 04:59:19;;;;;;;;;4.75;4.00;;;28.79;96899.87;;;;119030;1189;25003;-65
2022/08/15 05:02:05;;;;;;;;;5.00;4.00;;;28.83;96902.61;;;;119021;1190;26035;-65
2022/08/15 05:04:53;;;;;;;;;5.00;4.00;;;28.88;96906.16;;;;119062;1189;25824;-65
2022/08/15 05:07:22;;;;;;;;;3.50;3.50;;;28.86;96907.55;;;;119032;1189;25640;-67
2022/08/15 05:09:55;;;;;;;;;3.33;3.33;;;28.81;96909.88;;;;119026;1190;25777;-66
2022/08/15 05:12:31;;;;;;;;;3.00;3.00;;;28.80;96910.58;;;;119034;1190;24858;-65
2022/08/15 05:15:15;;;;;;;;;4.00;4.00;;;28.82;96910.13;;;;119050;1190;25173;-67
2022/08/15 05:17:46;;;;;;;;;5.00;5.00;;;28.81;96908.20;;;;119043;1190;25056;-63
2022/08/15 05:20:24;;;;;;;;;4.50;4.50;;;28.80;96905.21;;;;119056;1189;24921;-64
2022/08/15 05:23:01;;;;;;;;;3.00;3.00;;;28.79;96904.76;;;;119019;1189;25315;-64
2022/08/15 05:25:32;;;;;;;;;3.75;3.75;;;28.78;96907.32;;;;119029;1189;24852;-64
2022/08/15 05:28:01;;;;;;;;;4.00;3.25;;;28.77;96904.85;;;;119010;1190;25199;-63
2022/08/15 05:30:50;;;;;;;;;3.00;3.00;;;28.81;96908.55;;;;118998;1190;26293;-64
2022/08/15 05:33:28;;;;;;;;;4.00;4.00;;;28.83;96908.35;;;;119005;1190;25813;-64
2022/08/15 05:36:17;;;;;;;;;2.00;2.00;;;28.87;96905.17;;;;118988;1190;25859;-64
2022/08/15 05:38:58;;;;;;;;;2.75;2.75;;;28.87;96905.48;;;;119037;1189;25712;-64
2022/08/15 05:41:32;;;;;;;;;5.75;4.25;;;28.85;96907.87;;;;119031;1190;26275;-64
2022/08/15 05:44:33;;;;;;;;;3.25;3.25;;;28.82;96904.52;;;;119026;1190;25371;-64
2022/08/15 05:47:16;;;;;;;;;4.33;4.33;;;28.89;96903.48;;;;118923;1190;25415;-65
2022/08/15 05:49:55;;;;;;;;;3.00;3.00;;;28.89;96903.86;;;;119032;1189;25401;-67
2022/08/15 05:52:49;;;;;;;;;5.00;3.75;;;28.88;96906.09;;;;119029;1189;24859;-70
2022/08/15 05:55:48;;;;;;;;;4.75;4.75;;;28.87;96898.15;;;;119025;1189;25869;-66
2022/08/15 05:58:44;;;;;;;;;4.50;3.50;;;28.84;96904.69;;;;119016;1189;25499;-65
2022/08/15 06:01:20;;;;;;;;;3.75;3.75;;;28.80;96904.25;;;;119027;1189;25083;-65
2022/08/15 06:03:59;;;;;;;;;3.00;3.00;;;28.77;96902.77;;;;118969;1190;26367;-63
2022/08/15 06:06:30;;;;;;;;;4.25;4.00;;;28.77;96902.48;;;;119040;1190;25337;-64
2022/08/15 06:09:24;;;;;;;;;3.25;3.25;;;28.83;96904.75;;;;119045;1190;25032;-64
2022/08/15 06:12:02;;;;;;;;;3.75;3.75;;;28.86;96908.96;;;;119018;1189;26137;-64
2022/08/15 06:14:57;;;;;;;;;2.50;2.50;;;28.92;96903.86;;;;119019;1189;24922;-64
2022/08/15 06:17:32;;;;;;;;;4.00;3.33;;;28.91;96902.68;;;;119014;1189;25439;-64
2022/08/15 06:20:06;;;;;;;;;4.00;3.00;;;28.89;96900.21;;;;119017;1189;25177;-64
2022/08/15 06:23:20;;;;;;;;;3.75;3.00;;;28.93;96904.63;;;;119013;1189;25303;-64
2022/08/15 06:26:06;;;;;;;;;4.25;3.00;;;29.04;96905.66;;;;119032;1189;26095;-65
2022/08/15 06:29:11;;;;;;;;;3.50;3.50;;;29.01;96907.50;;;;119045;1189;25334;-64
2022/08/15 06:31:42;;;;;;;;;6.25;5.50;;;28.94;96909.66;;;;119051;1190;25391;-64
2022/08/15 06:34:36;;;;;;;;;3.50;3.00;;;28.87;96916.80;;;;119041;1189;25697;-64
2022/08/15 06:37:27;;;;;;;;;2.50;1.75;;;28.91;96923.17;;;;119054;1189;25120;-65
2022/08/15 06:40:04;;;;;;;;;3.00;3.00;;;28.88;96923.08;;;;119025;1190;25267;-64
2022/08/15 06:42:40;;;;;;;;;8.00;4.25;;;28.86;96924.30;;;;119033;1189;25421;-65
2022/08/15 06:45:22;;;;;;;;;5.00;4.33;;;28.85;96930.08;;;;119043;1190;25737;-64
2022/08/15 06:47:55;;;;;;;;;4.00;4.00;;;28.85;96930.63;;;;119045;1190;25668;-65
2022/08/15 06:50:40;;;;;;;;;4.00;4.00;;;28.84;96935.80;;;;119017;1189;25199;-65
2022/08/15 06:53:13;;;;;;;;;3.00;3.00;;;28.84;96936.31;;;;119023;1190;25744;-65
2022/08/15 06:55:52;;;;;;;;;4.50;3.50;;;28.84;96934.80;;;;118986;1188;26081;-65
2022/08/15 06:58:33;;;;;;;;;2.00;2.00;;;28.86;96935.61;;;;119047;1189;25195;-65
2022/08/15 07:01:40;;;;;;;;;3.00;3.00;;;28.92;96938.43;;;;119029;1189;24934;-65
2022/08/15 07:04:34;;;;;;;;;4.50;4.50;;;28.97;96934.34;;;;119034;1190;25921;-65
2022/08/15 07:07:17;;;;;;;;;4.00;2.25;;;28.94;96939.76;;;;119049;1190;25215;-65
2022/08/15 07:10:25;;;;;;;;;5.25;4.00;;;28.91;96943.17;;;;119020;1189;25195;-65
2022/08/15 07:13:04;;;;;;;;;3.50;2.25;;;28.89;96941.58;;;;119013;1189;25945;-65
2022/08/15 07:15:48;;;;;;;;;4.25;3.25;;;28.87;96936.02;;;;119049;1190;25123;-65
2022/08/15 07:18:43;;;;;;;;;4.75;3.75;;;28.88;96932.69;;;;119039;1190;25131;-65
2022/08/15 07:21:21;;;;;;;;;5.00;3.00;;;28.92;96929.20;;;;119026;1190;25628;-67
2022/08/15 07:24:19;;;;;;;;;3.75;3.75;;;28.91;96929.10;;;;119042;1189;25494;-67
2022/08/15 07:27:12;;;;;;;;;4.25;4.25;;;28.99;96930.00;;;;119018;1190;26274;-63
2022/08/15 07:29:48;;;;;;;;;4.75;4.00;;;29.00;96932.66;;;;118966;1190;25543;-64
2022/08/15 07:32:35;;;;;;;;;4.00;3.50;;;28.98;96931.88;;;;119094;1189;26421;-65
2022/08/15 07:35:09;;;;;;;;;4.25;2.75;;;28.97;96931.21;;;;119161;1188;25726;-65
2022/08/15 07:37:43;;;;;;;;;4.00;2.50;;;28.94;96928.96;;;;119049;1189;24789;-65
2022/08/15 07:40:12;;;;;;;;;5.00;5.00;;;28.92;96931.98;;;;119044;1189;25039;-64
2022/08/15 07:42:45;;;;;;;;;3.33;3.00;;;28.92;96931.91;;;;119155;1188;25068;-64
2022/08/15 07:45:34;;;;;;;;;4.75;4.75;;;28.94;96930.79;;;;119172;1188;24987;-64
2022/08/15 07:48:03;;;;;;;;;3.00;3.00;;;28.95;96927.66;;;;119173;1188;24880;-64
2022/08/15 07:50:45;;;;;;;;;4.25;4.25;;;28.93;96923.15;;;;119178;1187;25959;-64
2022/08/15 07:53:16;;;;;;;;;3.00;3.00;;;28.94;96923.52;;;;119181;1187;26235;-64
2022/08/15 07:56:04;;;;;;;;;4.00;4.00;;;28.93;96922.64;;;;119167;1188;25125;-64
2022/08/15 07:59:13;;;;;;;;;5.75;3.75;;;28.97;96921.65;;;;119153;1188;24720;-65
2022/08/15 08:01:56;;;;;;;;;4.00;4.00;;;29.02;96918.71;;;;119156;1188;25657;-64
2022/08/15 08:04:28;;;;;;;;;3.00;3.00;;;28.99;96923.00;;;;119030;1189;24707;-64
2022/08/15 08:07:12;;;;;;;;;6.00;4.00;;;28.98;96919.14;;;;119140;1188;26190;-66
2022/08/15 08:10:09;;;;;;;;;3.25;3.25;;;29.04;96914.38;;;;119137;1189;26299;-65
2022/08/15 08:12:57;;;;;;;;;5.00;3.50;;;29.07;96913.47;;;;119109;1186;24966;-66
2022/08/15 08:16:08;;;;;;;;;2.25;2.25;;;29.03;96913.45;;;;119095;1188;25164;-65
2022/08/15 08:18:36;;;;;;;;;4.33;3.00;;;29.09;96915.88;;;;119108;1188;25696;-65
2022/08/15 08:21:08;;;;;;;;;3.00;3.00;;;29.04;96917.50;;;;119109;1188;25269;-65
2022/08/15 08:23:46;;;;;;;;;3.00;3.00;;;28.99;96915.64;;;;119120;1187;25865;-66
2022/08/15 08:26:38;;;;;;;;;5.00;4.50;;;28.98;96914.08;;;;119078;1189;25047;-66
2022/08/15 08:29:39;;;;;;;;;4.50;4.50;;;28.99;96913.80;;;;119046;1189;25007;-67
2022/08/15 08:32:17;;;;;;;;;3.25;3.25;;;29.03;96911.23;;;;119074;1189;25450;-69
2022/08/15 08:35:10;;;;;;;;;7.50;4.00;;;29.07;96913.31;;;;119090;1188;25440;-66
2022/08/15 08:37:58;;;;;;;;;3.00;3.00;;;29.06;96910.75;;;;119021;1189;25322;-67
2022/08/15 08:44:06;;;;;;;;;5.00;5.00;;;29.00;96910.88;;;;119106;1189;24940;-71
2022/08/15 08:46:48;;;;;;;;;5.50;4.25;;;28.98;96914.27;;;;119029;1190;24720;-67
2022/08/15 08:49:56;;;;;;;;;4.25;4.25;;;28.96;96917.59;;;;119032;1190;24863;-68
2022/08/15 08:52:53;;;;;;;;;4.50;4.50;;;29.10;96916.02;;;;119049;1188;24968;-67
2022/08/15 08:55:27;;;;;;;;;4.00;4.00;;;29.08;96912.14;;;;119128;1188;24863;-71
2022/08/15 08:58:27;;;;;;;;;4.25;4.00;;;29.09;96910.84;;;;119105;1188;25233;-67
2022/08/15 09:01:16;;;;;;;;;2.75;2.75;;;29.17;96911.27;;;;119120;1187;25183;-71
2022/08/15 09:03:51;;;;;;;;;5.00;5.00;;;29.15;96910.38;;;;119130;1187;25098;-65
2022/08/15 09:06:23;;;;;;;;;2.50;2.50;;;29.09;96906.44;;;;119149;1187;25119;-65
2022/08/15 09:09:11;;;;;;;;;3.25;3.25;;;29.08;96904.54;;;;119163;1187;25258;-65
2022/08/15 09:11:47;;;;;;;;;3.00;3.00;;;29.06;96898.33;;;;119163;1187;25504;-66
2022/08/15 09:14:29;;;;;;;;;4.33;4.33;;;29.04;96896.23;;;;119147;1187;25134;-71
2022/08/15 09:17:11;;;;;;;;;6.00;3.00;;;29.05;96895.92;;;;119143;1187;24860;-71
2022/08/15 09:20:12;;;;;;;;;4.00;3.50;;;29.11;96894.85;;;;119058;1188;26083;-67
2022/08/15 09:22:49;;;;;;;;;4.75;4.00;;;29.12;96893.95;;;;119068;1189;25627;-65
2022/08/15 09:25:23;;;;;;;;;4.00;4.00;;;29.08;96892.02;;;;119135;1187;24839;-65
2022/08/15 09:28:22;;;;;;;;;3.25;2.25;;;29.07;96890.45;;;;119033;1189;25249;-65
2022/08/15 09:31:07;;;;;;;;;3.00;1.50;;;29.11;96887.65;;;;119148;1188;25544;-66
2022/08/15 09:33:49;;;;;;;;;3.25;2.50;;;29.10;96884.95;;;;119023;1187;24997;-65
2022/08/15 09:37:11;;;;;;;;;4.50;4.00;;;29.11;96880.80;;;;119163;1189;25645;-66
2022/08/15 09:39:56;;;;;;;;;3.67;3.67;;;29.18;96879.48;;;;119148;1188;24932;-69
2022/08/15 09:42:52;;;;;;;;;5.00;4.00;;;29.15;96878.63;;;;119164;1188;25416;-66
2022/08/15 09:46:07;;;;;;;;;2.25;2.25;;;29.14;96874.52;;;;119144;1188;24947;-67
2022/08/15 09:49:18;;;;;;;;;4.00;4.00;;;29.22;96873.27;;;;119181;1187;25732;-66
2022/08/15 09:52:21;;;;;;;;;4.25;4.25;;;29.19;96873.63;;;;119185;1187;25142;-64
2022/08/15 09:55:31;;;;;;;;;4.25;4.25;;;29.23;96870.33;;;;119122;1188;25271;-64
2022/08/15 09:58:12;;;;;;;;;5.00;4.00;;;29.19;96873.23;;;;119140;1188;25425;-64
2022/08/15 10:01:06;;;;;;;;;4.00;4.00;;;29.17;96870.58;;;;119136;1188;25188;-64
2022/08/15 10:03:43;;;;;;;;;5.50;5.00;;;29.16;96871.31;;;;119115;1188;25482;-64
2022/08/15 10:06:19;;;;;;;;;3.50;3.25;;;29.11;96871.63;;;;119103;1187;26372;-65
2022/08/15 10:09:34;;;;;;;;;4.75;4.00;;;29.13;96871.71;;;;119117;1188;26092;-64
2022/08/15 10:12:21;;;;;;;;;5.75;5.75;;;29.18;96870.52;;;;119110;1188;24762;-64
2022/08/15 10:14:52;;;;;;;;;5.00;5.00;;;29.20;96869.35;;;;119177;1187;25160;-64
2022/08/15 10:17:33;;;;;;;;;5.00;3.75;;;29.15;96868.16;;;;119141;1189;25112;-64
2022/08/15 10:20:15;;;;;;;;;4.25;3.50;;;29.11;96866.35;;;;119126;1188;26797;-64
2022/08/15 10:22:52;;;;;;;;;5.50;3.50;;;29.08;96867.26;;;;119105;1188;26432;-64
2022/08/15 10:25:22;;;;;;;;;5.25;5.25;;;29.06;96868.23;;;;119123;1188;24888;-64
2022/08/15 10:28:11;;;;;;;;;7.00;5.50;;;29.02;96863.48;;;;119158;1188;25036;-64
2022/08/15 10:31:02;;;;;;;;;4.00;4.00;;;29.07;96861.82;;;;119131;1187;25728;-69
2022/08/15 10:33:41;;;;;;;;;5.25;4.00;;;29.08;96862.67;;;;119124;1188;25279;-65
2022/08/15 10:36:27;;;;;;;;;5.50;4.75;;;29.13;96859.60;;;;119134;1188;25515;-65
2022/08/15 10:39:32;;;;;;;;;3.00;3.00;;;29.16;96860.35;;;;119110;1188;25423;-65
2022/08/15 10:42:28;;;;;;;;;7.25;4.50;;;29.14;96858.17;;;;119115;1188;25094;-65
2022/08/15 10:45:11;;;;;;;;;4.50;4.50;;;29.08;96857.30;;;;119153;1188;25815;-65
2022/08/15 10:48:08;;;;;;;;;3.50;3.50;;;29.07;96854.20;;;;119134;1189;25723;-65
2022/08/15 10:51:28;;;;;;;;;4.25;3.75;;;29.14;96851.77;;;;119152;1189;25267;-65
2022/08/15 10:54:22;;;;;;;;;6.00;6.00;;;29.20;96848.49;;;;118835;1187;25901;-67
2022/08/15 10:56:54;;;;;;;;;5.25;5.25;;;29.18;96847.50;;;;119117;1187;26213;-70
2022/08/15 10:59:40;;;;;;;;;5.25;5.00;;;29.18;96848.70;;;;119131;1188;26363;-67
2022/08/15 11:02:32;;;;;;;;;8.00;4.33;;;29.18;96848.27;;;;119120;1187;25286;-68
2022/08/15 11:05:09;;;;;;;;;5.00;4.50;;;29.18;96848.01;;;;119124;1188;26292;-64
2022/08/15 11:07:47;;;;;;;;;7.75;7.75;;;29.15;96846.82;;;;119170;1189;25499;-64
2022/08/15 11:10:28;;;;;;;;;7.25;5.75;;;29.18;96847.78;;;;119124;1188;26017;-64
2022/08/15 11:13:04;;;;;;;;;5.50;4.50;;;29.17;96850.10;;;;119138;1188;25405;-64
2022/08/15 11:15:56;;;;;;;;;4.00;3.25;;;29.14;96848.83;;;;119032;1190;25603;-65
2022/08/15 11:18:33;;;;;;;;;9.00;5.00;;;29.19;96847.84;;;;119136;1189;25701;-65
2022/08/15 11:21:14;;;;;;;;;6.50;4.50;;;29.18;96847.00;;;;119040;1189;25447;-65
2022/08/15 11:23:42;;;;;;;;;4.25;4.25;;;29.18;96846.71;;;;119044;1189;25820;-65
2022/08/15 11:26:12;;;;;;;;;4.50;4.00;;;29.16;96840.75;;;;119136;1187;25069;-65
2022/08/15 11:29:15;;;;;;;;;7.25;4.00;;;29.16;96836.96;;;;119156;1188;25971;-64
2022/08/15 11:31:48;;;;;;;;;4.75;4.00;;;29.15;96833.02;;;;119123;1188;26054;-65
2022/08/15 11:34:34;;;;;;;;;4.25;4.25;;;29.13;96829.27;;;;119133;1188;25075;-65
2022/08/15 11:37:14;;;;;;;;;6.75;4.75;;;29.15;96829.16;;;;119143;1188;24933;-65
2022/08/15 11:40:01;;;;;;;;;3.50;3.50;;;29.14;96826.73;;;;119139;1187;26233;-66
2022/08/15 11:42:39;;;;;;;;;4.75;4.00;;;29.16;96826.12;;;;119131;1187;26280;-66
2022/08/15 11:45:31;;;;;;;;;6.00;6.00;;;29.22;96825.46;;;;119155;1189;26297;-65
2022/08/15 11:48:38;;;;;;;;;8.50;5.50;;;29.27;96822.94;;;;119158;1188;25429;-66
2022/08/15 11:51:23;;;;;;;;;7.25;6.25;;;29.29;96816.73;;;;119153;1189;25602;-65
2022/08/15 11:54:13;;;;;;;;;5.75;5.00;;;29.32;96813.73;;;;119137;1188;26309;-66
2022/08/15 11:57:07;;;;;;;;;7.00;4.50;;;29.34;96809.91;;;;119154;1189;26339;-66
2022/08/15 12:00:06;;;;;;;;;5.67;5.00;;;29.35;96808.03;;;;119136;1188;24982;-65
2022/08/15 12:02:35;;;;;;;;;6.75;5.25;;;29.34;96807.14;;;;119164;1188;26101;-65
2022/08/15 12:05:15;;;;;;;;;7.25;4.00;;;29.31;96803.53;;;;119165;1188;25225;-66
2022/08/15 12:08:05;;;;;;;;;3.25;3.25;;;29.33;96800.33;;;;119157;1187;25937;-66
2022/08/15 12:11:06;;;;;;;;;4.50;4.25;;;29.37;96797.30;;;;119159;1187;25109;-65
2022/08/15 12:13:36;;;;;;;;;7.25;5.00;;;29.34;96794.73;;;;119142;1188;24921;-65
2022/08/15 12:16:27;;;;;;;;;5.00;3.25;;;29.29;96792.77;;;;119170;1187;24800;-66
2022/08/15 12:19:34;;;;;;;;;4.00;3.33;;;29.30;96792.54;;;;119207;1186;25139;-65
2022/08/15 12:22:29;;;;;;;;;5.25;5.25;;;29.35;96794.66;;;;119187;1188;26742;-64
2022/08/15 12:25:18;;;;;;;;;7.00;5.25;;;29.38;96788.30;;;;119221;1188;25819;-64
2022/08/15 12:28:06;;;;;;;;;5.75;5.75;;;29.41;96790.64;;;;119206;1187;25046;-65
2022/08/15 12:30:58;;;;;;;;;3.50;3.50;;;29.43;96782.21;;;;119206;1187;25015;-65
2022/08/15 12:33:26;;;;;;;;;4.75;4.75;;;29.39;96781.02;;;;119181;1187;25529;-64
2022/08/15 12:35:54;;;;;;;;;5.00;5.00;;;29.34;96784.50;;;;119195;1187;25712;-64
2022/08/15 12:38:29;;;;;;;;;3.75;3.75;;;29.33;96789.05;;;;119159;1188;24950;-66
2022/08/15 12:40:59;;;;;;;;;4.00;4.00;;;29.32;96789.13;;;;119155;1188;25887;-66
2022/08/15 12:43:48;;;;;;;;;5.25;5.00;;;29.36;96784.97;;;;119136;1187;24998;-66
2022/08/15 12:46:18;;;;;;;;;2.00;1.50;;;29.36;96785.67;;;;119140;1187;24895;-66
2022/08/15 12:48:48;;;;;;;;;5.00;4.00;;;29.34;96781.91;;;;119042;1190;26422;-65
2022/08/15 12:51:26;;;;;;;;;4.50;4.00;;;29.34;96781.48;;;;119150;1187;24823;-67
2022/08/15 12:53:56;;;;;;;;;4.25;4.25;;;29.33;96773.61;;;;119029;1188;25988;-71
2022/08/15 12:56:24;;;;;;;;;4.00;4.00;;;29.30;96771.06;;;;119168;1188;25692;-69
2022/08/15 12:59:13;;;;;;;;;4.25;4.25;;;29.34;96766.08;;;;119034;1190;25413;-72
2022/08/15 13:01:43;;;;;;;;;5.00;4.00;;;29.34;96770.09;;;;119175;1187;25607;-71
2022/08/15 13:04:25;;;;;;;;;6.00;6.00;;;29.36;96773.34;;;;119056;1190;25226;-69
2022/08/15 13:07:14;;;;;;;;;4.00;3.00;;;29.42;96767.77;;;;119197;1187;25718;-65
2022/08/15 13:10:01;;;;;;;;;4.00;4.00;;;29.46;96768.59;;;;119186;1188;24718;-65
2022/08/15 13:12:49;;;;;;;;;2.75;2.00;;;29.51;96768.23;;;;119171;1188;25857;-66
2022/08/15 13:15:19;;;;;;;;;5.00;4.50;;;29.49;96770.19;;;;119170;1187;25742;-66
2022/08/15 13:17:55;;;;;;;;;4.25;4.25;;;29.46;96770.38;;;;119146;1187;24834;-67
2022/08/15 13:23:38;;;;;;;;;2.25;2.25;;;29.47;96761.02;;;;119111;1188;25581;-65
2022/08/15 13:26:20;;;;;;;;;5.00;4.00;;;29.50;96767.07;;;;119155;1188;25548;-68
2022/08/15 13:28:59;;;;;;;;;4.00;4.00;;;29.50;96770.72;;;;119132;1187;24833;-66